createdAt,value
2018-06-30T00:00:39.215Z,67.50
2018-06-30T00:03:08.421Z,67.40
2018-06-30T00:05:37.568Z,67.80
2018-06-30T00:08:07.099Z,68.20
2018-06-30T00:10:36.168Z,67.90
2018-06-30T00:13:05.256Z,67.20
2018-06-30T00:15:34.344Z,67.80
2018-06-30T00:18:03.481Z,67.10
2018-06-30T00:20:32.481Z,67.60
2018-06-30T00:25:30.291Z,67.20
2018-06-30T00:27:59.143Z,66.50
2018-06-30T00:30:28.306Z,66.60
2018-06-30T00:32:57.492Z,67.20
2018-06-30T00:35:26.993Z,67.30
2018-06-30T00:37:55.867Z,67.40
2018-06-30T00:40:25.233Z,67.80
2018-06-30T00:42:54.309Z,67.50
2018-06-30T00:45:23.401Z,67.60
2018-06-30T00:47:52.152Z,68.20
2018-06-30T00:50:21.559Z,68.40
2018-06-30T00:52:50.670Z,68.70
2018-06-30T00:55:19.424Z,68.30
2018-06-30T00:57:48.218Z,67.90
2018-06-30T01:00:17.340Z,68.30
2018-06-30T01:02:46.775Z,68.00
2018-06-30T01:05:15.932Z,68.20
2018-06-30T01:07:44.702Z,68.80
2018-06-30T01:10:13.510Z,69.10
2018-06-30T01:12:42.686Z,69.40
2018-06-30T01:15:12.096Z,69.70
2018-06-30T01:17:41.005Z,69.40
2018-06-30T01:20:10.334Z,69.10
2018-06-30T01:22:39.448Z,70.00
2018-06-30T01:25:08.744Z,70.20
2018-06-30T01:27:38.334Z,70.60
2018-06-30T01:30:08.647Z,70.10
2018-06-30T01:32:37.538Z,70.00
2018-06-30T01:35:07.461Z,70.80
2018-06-30T01:37:37.007Z,71.10
2018-06-30T01:40:06.447Z,70.40
2018-06-30T01:42:35.577Z,70.60
2018-06-30T01:45:05.183Z,71.20
2018-06-30T01:47:33.929Z,71.20
2018-06-30T01:50:02.708Z,70.30
2018-06-30T01:52:32.169Z,71.30
2018-06-30T01:55:01.526Z,71.30
2018-06-30T01:57:30.297Z,70.80
2018-06-30T01:59:59.595Z,71.80
2018-06-30T02:02:29.050Z,70.80
2018-06-30T02:04:58.505Z,71.50
2018-06-30T02:07:27.582Z,70.70
2018-06-30T02:09:57.000Z,71.00
2018-06-30T02:12:26.159Z,71.70
2018-06-30T02:14:55.186Z,71.40
2018-06-30T02:17:24.602Z,72.20
2018-06-30T02:19:53.696Z,72.10
2018-06-30T02:22:22.486Z,72.20
2018-06-30T02:24:51.687Z,72.70
2018-06-30T02:27:20.532Z,72.00
2018-06-30T02:29:49.463Z,72.80
2018-06-30T02:32:18.660Z,73.80
2018-06-30T02:34:47.709Z,74.00
2018-06-30T02:37:17.412Z,71.90
2018-06-30T02:39:46.694Z,71.90
2018-06-30T02:42:15.444Z,73.00
2018-06-30T02:44:45.058Z,71.70
2018-06-30T02:47:14.663Z,71.90
2018-06-30T02:49:43.407Z,73.10
2018-06-30T02:52:12.485Z,71.40
2018-06-30T02:54:41.208Z,71.20
2018-06-30T02:57:10.458Z,71.20
2018-06-30T02:59:41.086Z,71.80
2018-06-30T03:04:38.824Z,72.00
2018-06-30T03:07:08.247Z,71.30
2018-06-30T03:09:37.020Z,71.10
2018-06-30T03:12:06.524Z,71.60
2018-06-30T03:14:35.314Z,71.20
2018-06-30T03:17:04.483Z,71.00
2018-06-30T03:19:33.247Z,69.80
2018-06-30T03:22:02.805Z,68.70
2018-06-30T03:24:31.635Z,69.60
2018-06-30T03:27:00.437Z,69.50
2018-06-30T03:29:29.219Z,69.60
2018-06-30T03:31:58.219Z,69.30
2018-06-30T03:34:27.415Z,68.70
2018-06-30T03:36:56.890Z,66.50
2018-06-30T03:39:26.045Z,64.70
2018-06-30T03:41:55.200Z,59.10
2018-06-30T03:44:23.928Z,56.00
2018-06-30T03:46:53.110Z,52.80
2018-06-30T03:49:22.180Z,52.40
2018-06-30T03:51:50.954Z,50.90
2018-06-30T03:54:20.009Z,52.20
2018-06-30T03:56:48.741Z,54.10
2018-06-30T03:59:17.523Z,53.10
2018-06-30T04:01:47.061Z,54.00
2018-06-30T04:04:16.161Z,53.70
2018-06-30T04:06:44.959Z,52.70
2018-06-30T04:09:14.505Z,51.80
2018-06-30T04:11:43.304Z,52.60
2018-06-30T04:14:12.061Z,51.50
2018-06-30T04:16:40.914Z,52.00
2018-06-30T04:19:16.418Z,52.00
2018-06-30T04:21:46.665Z,52.40
2018-06-30T04:24:15.405Z,50.40
2018-06-30T04:26:44.647Z,49.40
2018-06-30T04:29:14.342Z,45.90
2018-06-30T04:31:43.735Z,42.30
2018-06-30T04:34:13.501Z,40.20
2018-06-30T04:36:43.225Z,40.30
2018-06-30T04:39:13.289Z,38.20
2018-06-30T04:41:42.864Z,38.10
2018-06-30T04:44:12.308Z,37.00
2018-06-30T04:46:42.198Z,36.60
2018-06-30T04:49:11.559Z,37.00
2018-06-30T04:51:41.312Z,39.20
2018-06-30T04:54:10.842Z,35.40
2018-06-30T04:56:40.642Z,35.40
2018-06-30T04:59:10.130Z,37.80
2018-06-30T05:01:39.556Z,36.20
2018-06-30T05:04:10.340Z,35.20
2018-06-30T05:06:40.071Z,32.50
2018-06-30T05:09:10.415Z,31.30
2018-06-30T05:11:40.131Z,32.40
2018-06-30T05:14:09.793Z,32.00
2018-06-30T05:16:39.643Z,30.70
2018-06-30T05:19:09.159Z,32.60
2018-06-30T05:21:38.673Z,31.90
2018-06-30T05:24:08.329Z,32.30
2018-06-30T05:26:38.327Z,34.70
2018-06-30T05:29:08.277Z,34.80
2018-06-30T05:31:38.270Z,34.10
2018-06-30T05:34:07.946Z,34.60
2018-06-30T05:36:37.941Z,33.50
2018-06-30T05:39:08.167Z,31.70
2018-06-30T05:41:38.469Z,32.50
2018-06-30T05:44:07.820Z,32.20
2018-06-30T05:46:37.456Z,30.50
2018-06-30T05:49:07.148Z,32.40
2018-06-30T05:51:36.804Z,35.30
2018-06-30T05:54:06.454Z,37.40
2018-06-30T05:56:36.430Z,39.10
2018-06-30T05:59:06.154Z,36.30
2018-06-30T06:01:35.469Z,35.30
2018-06-30T06:04:05.033Z,36.10
2018-06-30T06:06:34.454Z,34.30
2018-06-30T06:09:05.787Z,32.50
2018-06-30T06:11:35.132Z,30.80
2018-06-30T06:14:05.001Z,35.80
2018-06-30T06:16:35.107Z,34.40
2018-06-30T06:19:04.788Z,32.60
2018-06-30T06:21:34.456Z,34.80
2018-06-30T06:24:04.256Z,31.20
2018-06-30T06:26:34.208Z,33.90
2018-06-30T06:29:03.663Z,31.50
2018-06-30T06:31:33.724Z,33.10
2018-06-30T06:34:03.730Z,33.20
2018-06-30T06:36:33.050Z,30.00
2018-06-30T06:39:02.802Z,31.20
2018-06-30T06:41:32.296Z,31.10
2018-06-30T06:44:02.318Z,32.40
2018-06-30T06:46:31.851Z,30.70
2018-06-30T06:49:01.986Z,30.90
2018-06-30T06:51:31.497Z,29.60
2018-06-30T06:56:30.423Z,33.30
2018-06-30T06:59:00.579Z,33.70
2018-06-30T07:01:31.072Z,34.70
2018-06-30T07:04:00.893Z,32.80
2018-06-30T07:06:30.382Z,30.40
2018-06-30T07:08:59.770Z,26.40
2018-06-30T07:11:29.506Z,27.30
2018-06-30T07:13:59.282Z,31.10
2018-06-30T07:16:29.264Z,32.10
2018-06-30T07:18:58.636Z,31.20
2018-06-30T07:23:57.268Z,31.00
2018-06-30T07:26:27.323Z,30.80
2018-06-30T07:28:56.767Z,31.00
2018-06-30T07:31:26.661Z,30.80
2018-06-30T07:33:55.933Z,29.80
2018-06-30T07:36:25.625Z,30.70
2018-06-30T07:38:55.006Z,31.80
2018-06-30T07:41:25.229Z,32.60
2018-06-30T07:43:54.871Z,29.30
2018-06-30T07:46:24.579Z,28.50
2018-06-30T07:48:53.922Z,28.40
2018-06-30T07:51:23.591Z,27.80
2018-06-30T07:53:53.371Z,28.10
2018-06-30T07:56:22.704Z,26.60
2018-06-30T07:58:51.999Z,26.90
2018-06-30T08:01:21.517Z,26.20
2018-06-30T08:03:51.226Z,25.80
2018-06-30T08:06:21.228Z,24.50
2018-06-30T08:08:50.947Z,26.00
2018-06-30T08:11:20.584Z,27.70
2018-06-30T08:13:50.040Z,28.00
2018-06-30T08:16:18.851Z,27.00
2018-06-30T08:18:48.316Z,30.50
2018-06-30T08:21:17.686Z,35.30
2018-06-30T08:23:47.534Z,36.00
2018-06-30T08:26:16.902Z,35.00
2018-06-30T08:28:46.008Z,37.50
2018-06-30T08:31:14.857Z,38.10
2018-06-30T08:33:44.061Z,39.60
2018-06-30T08:36:13.345Z,42.40
2018-06-30T08:38:42.685Z,41.10
2018-06-30T08:41:11.816Z,42.20
2018-06-30T08:43:40.965Z,42.50
2018-06-30T08:46:09.923Z,41.80
2018-06-30T08:48:39.051Z,43.90
2018-06-30T08:51:07.800Z,43.90
2018-06-30T08:53:37.100Z,43.90
2018-06-30T08:56:06.720Z,43.70
2018-06-30T08:58:35.561Z,43.80
2018-06-30T09:01:04.301Z,44.30
2018-06-30T09:03:33.434Z,41.40
2018-06-30T09:06:03.099Z,44.70
2018-06-30T09:08:32.277Z,45.70
2018-06-30T09:11:01.685Z,45.70
2018-06-30T09:13:30.792Z,44.60
2018-06-30T09:15:59.575Z,44.60
2018-06-30T09:18:28.882Z,44.10
2018-06-30T09:20:58.741Z,43.70
2018-06-30T09:23:27.751Z,44.20
2018-06-30T09:25:57.096Z,43.10
2018-06-30T09:28:26.125Z,41.60
2018-06-30T09:30:55.504Z,40.40
2018-06-30T09:33:24.727Z,40.20
2018-06-30T09:35:54.407Z,43.10
2018-06-30T09:38:23.660Z,44.40
2018-06-30T09:40:55.463Z,46.20
2018-06-30T09:43:25.432Z,46.20
2018-06-30T09:45:54.941Z,46.30
2018-06-30T09:48:23.965Z,44.80
2018-06-30T09:50:53.344Z,44.90
2018-06-30T09:53:22.652Z,44.70
2018-06-30T09:55:51.979Z,45.20
2018-06-30T09:58:21.037Z,46.10
2018-06-30T10:00:54.928Z,45.10
2018-06-30T10:03:24.739Z,45.90
2018-06-30T10:05:53.778Z,46.00
2018-06-30T10:08:23.455Z,46.00
2018-06-30T10:10:52.314Z,45.70
2018-06-30T10:13:21.381Z,43.80
2018-06-30T10:15:50.137Z,44.40
2018-06-30T10:18:19.260Z,46.40
2018-06-30T10:20:48.480Z,45.70
2018-06-30T10:23:17.841Z,44.80
2018-06-30T10:25:47.374Z,43.90
2018-06-30T10:28:16.498Z,43.50
2018-06-30T10:30:45.586Z,42.50
2018-06-30T10:33:14.692Z,43.40
2018-06-30T10:35:44.183Z,44.10
2018-06-30T10:38:13.358Z,42.90
2018-06-30T10:40:42.929Z,44.30
2018-06-30T10:43:12.109Z,45.00
2018-06-30T10:45:41.000Z,44.00
2018-06-30T10:48:10.457Z,44.50
2018-06-30T10:50:39.361Z,44.70
2018-06-30T10:53:08.339Z,44.20
2018-06-30T10:55:37.499Z,43.80
2018-06-30T10:58:07.230Z,43.80
2018-06-30T11:00:36.609Z,42.50
2018-06-30T11:03:05.743Z,42.20
2018-06-30T11:08:03.377Z,41.10
2018-06-30T11:10:32.195Z,40.20
2018-06-30T11:13:01.261Z,40.40
2018-06-30T11:15:30.473Z,41.00
2018-06-30T11:17:59.951Z,43.00
2018-06-30T11:20:29.083Z,43.60
2018-06-30T11:22:58.253Z,41.40
2018-06-30T11:25:27.374Z,40.90
2018-06-30T11:27:56.448Z,40.10
2018-06-30T11:30:25.913Z,40.50
2018-06-30T11:32:55.010Z,39.70
2018-06-30T11:35:24.159Z,40.40
2018-06-30T11:37:52.948Z,40.50
2018-06-30T11:40:22.277Z,40.60
2018-06-30T11:42:52.096Z,40.80
2018-06-30T11:45:21.358Z,41.00
2018-06-30T11:47:50.748Z,41.70
2018-06-30T11:50:19.868Z,43.50
2018-06-30T11:52:49.104Z,46.30
2018-06-30T11:55:18.527Z,44.60
2018-06-30T11:57:47.901Z,43.70
2018-06-30T12:00:17.205Z,43.20
2018-06-30T12:02:46.252Z,41.00
2018-06-30T12:05:16.100Z,42.70
2018-06-30T12:07:45.234Z,43.00
2018-06-30T12:10:14.492Z,42.30
2018-06-30T12:12:45.802Z,42.70
2018-06-30T12:15:14.568Z,43.90
2018-06-30T12:17:43.336Z,43.30
2018-06-30T12:20:12.346Z,43.50
2018-06-30T12:22:41.152Z,43.30
2018-06-30T12:25:10.490Z,44.40
2018-06-30T12:27:39.885Z,43.80
2018-06-30T12:30:08.821Z,44.40
2018-06-30T12:32:37.949Z,44.50
2018-06-30T12:35:07.094Z,45.00
2018-06-30T12:37:36.360Z,44.10
2018-06-30T12:40:05.178Z,43.70
2018-06-30T12:42:34.030Z,44.20
2018-06-30T12:47:32.546Z,43.70
2018-06-30T12:50:01.929Z,42.90
2018-06-30T12:52:31.350Z,43.20
2018-06-30T12:55:00.777Z,43.40
2018-06-30T12:57:30.885Z,43.90
2018-06-30T13:00:00.418Z,44.20
2018-06-30T13:02:29.620Z,44.20
2018-06-30T13:04:58.800Z,43.90
2018-06-30T13:07:27.797Z,42.60
2018-06-30T13:09:58.059Z,43.20
2018-06-30T13:12:27.101Z,44.70
2018-06-30T13:17:25.825Z,45.50
2018-06-30T13:19:54.953Z,44.90
2018-06-30T13:22:23.698Z,44.40
2018-06-30T13:24:52.796Z,45.20
2018-06-30T13:27:21.562Z,45.50
2018-06-30T13:29:50.648Z,45.30
2018-06-30T13:32:20.092Z,43.80
2018-06-30T13:34:48.974Z,42.90
2018-06-30T13:37:18.080Z,43.30
2018-06-30T13:39:46.874Z,44.20
2018-06-30T13:42:16.333Z,44.50
2018-06-30T13:44:45.203Z,43.70
2018-06-30T13:47:14.834Z,43.70
2018-06-30T13:49:43.882Z,43.70
2018-06-30T13:52:12.984Z,44.00
2018-06-30T13:54:41.890Z,44.50
2018-06-30T13:57:11.076Z,45.40
2018-06-30T13:59:40.322Z,45.60
2018-06-30T14:02:09.881Z,45.40
2018-06-30T14:04:39.437Z,45.80
2018-06-30T14:07:08.547Z,45.00
2018-06-30T14:09:37.937Z,45.20
2018-06-30T14:12:07.131Z,46.90
2018-06-30T14:14:36.363Z,46.50
2018-06-30T14:17:05.734Z,47.00
2018-06-30T14:19:34.583Z,45.70
2018-06-30T14:22:03.691Z,44.80
2018-06-30T14:24:32.513Z,44.00
2018-06-30T14:27:01.322Z,45.00
2018-06-30T14:31:58.909Z,44.20
2018-06-30T14:34:28.393Z,44.90
2018-06-30T14:36:57.480Z,45.30
2018-06-30T14:39:26.601Z,46.50
2018-06-30T14:41:55.376Z,45.60
2018-06-30T14:44:28.433Z,45.90
2018-06-30T14:46:57.757Z,46.20
2018-06-30T14:49:26.916Z,47.10
2018-06-30T14:51:55.995Z,45.30
2018-06-30T14:54:25.152Z,44.50
2018-06-30T14:56:53.946Z,44.60
2018-06-30T14:59:22.972Z,44.50
2018-06-30T15:01:52.096Z,44.10
2018-06-30T15:04:21.602Z,45.30
2018-06-30T15:06:51.342Z,47.00
2018-06-30T15:09:20.273Z,47.20
2018-06-30T15:11:49.352Z,47.10
2018-06-30T15:14:18.702Z,47.00
2018-06-30T15:16:47.943Z,47.30
2018-06-30T15:19:17.240Z,47.40
2018-06-30T15:21:46.577Z,47.30
2018-06-30T15:24:15.850Z,47.90
2018-06-30T15:26:44.825Z,46.90
2018-06-30T15:29:13.914Z,47.70
2018-06-30T15:31:42.649Z,48.50
2018-06-30T15:34:11.704Z,47.40
2018-06-30T15:36:40.857Z,47.30
2018-06-30T15:39:10.915Z,46.50
2018-06-30T15:41:40.191Z,46.40
2018-06-30T15:44:09.950Z,46.20
2018-06-30T15:46:39.069Z,47.30
2018-06-30T15:49:08.426Z,46.20
2018-06-30T15:51:37.225Z,44.70
2018-06-30T15:54:06.425Z,44.60
2018-06-30T15:56:35.210Z,43.90
2018-06-30T15:59:04.253Z,44.50
2018-06-30T16:01:33.550Z,43.90
2018-06-30T16:04:03.081Z,45.30
2018-06-30T16:09:01.273Z,45.00
2018-06-30T16:11:30.907Z,45.10
2018-06-30T16:13:59.768Z,44.70
2018-06-30T16:16:29.662Z,45.50
2018-06-30T16:18:58.887Z,44.80
2018-06-30T16:21:28.148Z,45.60
2018-06-30T16:23:57.512Z,47.70
2018-06-30T16:26:26.893Z,45.30
2018-06-30T16:28:56.173Z,46.90
2018-06-30T16:31:25.843Z,45.80
2018-06-30T16:33:54.812Z,45.50
2018-06-30T16:36:23.559Z,46.50
2018-06-30T16:38:52.658Z,45.10
2018-06-30T16:41:21.724Z,45.40
2018-06-30T16:43:50.875Z,46.30
2018-06-30T16:46:20.009Z,46.00
2018-06-30T16:48:49.101Z,44.20
2018-06-30T16:51:18.190Z,43.80
2018-06-30T16:53:47.326Z,43.20
2018-06-30T16:56:16.464Z,41.90
2018-06-30T16:58:45.338Z,43.40
2018-06-30T17:01:14.811Z,42.70
2018-06-30T17:03:43.595Z,41.70
2018-06-30T17:06:12.407Z,41.70
2018-06-30T17:08:42.075Z,42.60
2018-06-30T17:11:11.274Z,42.90
2018-06-30T17:13:40.349Z,42.30
2018-06-30T17:16:09.651Z,43.80
2018-06-30T17:18:38.959Z,44.10
2018-06-30T17:21:08.250Z,43.20
2018-06-30T17:23:37.436Z,45.30
2018-06-30T17:26:07.797Z,44.20
2018-06-30T17:28:36.784Z,45.10
2018-06-30T17:31:06.022Z,46.60
2018-06-30T17:33:34.809Z,45.40
2018-06-30T17:36:04.074Z,45.70
2018-06-30T17:38:33.170Z,45.40
2018-06-30T17:41:01.987Z,46.10
2018-06-30T17:43:31.836Z,46.10
2018-06-30T17:46:01.296Z,46.10
2018-06-30T17:48:30.085Z,45.50
2018-06-30T17:50:59.187Z,45.30
2018-06-30T17:53:28.557Z,45.80
2018-06-30T17:55:57.531Z,45.40
2018-06-30T17:58:26.666Z,46.20
2018-06-30T18:00:55.883Z,46.10
2018-06-30T18:03:24.715Z,45.70
2018-06-30T18:05:53.575Z,45.80
2018-06-30T18:08:22.583Z,46.40
2018-06-30T18:10:51.809Z,45.70
2018-06-30T18:13:21.572Z,45.90
2018-06-30T18:15:50.897Z,46.60
2018-06-30T18:18:20.715Z,47.50
2018-06-30T18:20:51.075Z,47.30
2018-06-30T18:23:21.118Z,47.30
2018-06-30T18:25:50.254Z,47.20
2018-06-30T18:28:19.700Z,47.40
2018-06-30T18:30:48.755Z,47.30
2018-06-30T18:33:18.413Z,47.60
2018-06-30T18:35:47.290Z,47.90
2018-06-30T18:38:16.114Z,48.90
2018-06-30T18:40:45.034Z,50.50
2018-06-30T18:43:13.931Z,51.00
2018-06-30T18:45:42.732Z,51.80
2018-06-30T18:48:11.515Z,51.80
2018-06-30T18:50:40.304Z,52.00
2018-06-30T18:53:09.077Z,52.90
2018-06-30T18:55:38.210Z,52.60
2018-06-30T18:58:07.351Z,52.20
2018-06-30T19:00:36.221Z,52.90
2018-06-30T19:03:05.023Z,52.50
2018-06-30T19:05:34.507Z,52.80
2018-06-30T19:08:04.002Z,52.80
2018-06-30T19:10:32.796Z,53.10
2018-06-30T19:13:01.662Z,52.70
2018-06-30T19:15:30.959Z,52.70
2018-06-30T19:17:59.876Z,52.60
2018-06-30T19:20:28.851Z,53.40
2018-06-30T19:22:58.105Z,53.60
2018-06-30T19:25:27.106Z,52.60
2018-06-30T19:27:56.342Z,52.60
2018-06-30T19:32:54.266Z,53.30
2018-06-30T19:37:51.714Z,52.80
2018-06-30T19:40:20.856Z,53.00
2018-06-30T19:42:49.658Z,52.40
2018-06-30T19:45:18.585Z,52.80
2018-06-30T19:50:16.515Z,53.30
2018-06-30T19:52:45.371Z,53.00
2018-06-30T19:55:14.139Z,53.20
2018-06-30T19:57:42.985Z,53.00
2018-06-30T20:00:11.869Z,53.20
2018-06-30T20:02:41.231Z,53.80
2018-06-30T20:05:10.387Z,53.10
2018-06-30T20:07:45.037Z,53.30
2018-06-30T20:10:16.312Z,53.40
2018-06-30T20:12:45.319Z,53.60
2018-06-30T20:15:14.133Z,53.80
2018-06-30T20:17:43.399Z,54.20
2018-06-30T20:20:12.358Z,53.90
2018-06-30T20:22:41.264Z,54.80
2018-06-30T20:25:11.465Z,54.50
2018-06-30T20:27:40.772Z,53.20
2018-06-30T20:30:10.185Z,53.70
2018-06-30T20:32:39.664Z,53.40
2018-06-30T20:35:09.894Z,53.80
2018-06-30T20:37:39.234Z,53.10
2018-06-30T20:40:08.299Z,53.20
2018-06-30T20:42:37.224Z,53.30
2018-06-30T20:45:06.328Z,54.20
2018-06-30T20:47:35.316Z,54.30
2018-06-30T20:50:04.516Z,53.90
2018-06-30T20:52:34.004Z,53.80
2018-06-30T20:55:03.105Z,53.60
2018-06-30T20:57:32.398Z,54.00
2018-06-30T21:00:02.154Z,54.20
2018-06-30T21:02:31.120Z,55.00
2018-06-30T21:04:59.928Z,55.10
2018-06-30T21:07:29.089Z,55.50
2018-06-30T21:09:58.214Z,55.50
2018-06-30T21:12:27.424Z,55.60
2018-06-30T21:14:56.568Z,55.70
2018-06-30T21:17:25.949Z,55.60
2018-06-30T21:19:54.972Z,55.70
2018-06-30T21:22:24.225Z,56.40
2018-06-30T21:24:53.620Z,56.80
2018-06-30T21:27:22.953Z,56.30
2018-06-30T21:29:52.457Z,56.50
2018-06-30T21:32:21.553Z,56.30
2018-06-30T21:34:50.464Z,56.40
2018-06-30T21:37:19.748Z,56.60
2018-06-30T21:39:49.469Z,57.30
2018-06-30T21:42:18.520Z,57.10
2018-06-30T21:44:47.392Z,57.60
2018-06-30T21:47:16.429Z,57.30
2018-06-30T21:49:45.643Z,57.50
2018-06-30T21:52:14.494Z,57.70
2018-06-30T21:54:43.694Z,57.90
2018-06-30T21:57:13.302Z,58.00
2018-06-30T21:59:42.089Z,58.40
2018-06-30T22:02:10.877Z,58.70
2018-06-30T22:04:40.029Z,59.00
2018-06-30T22:07:09.118Z,58.50
2018-06-30T22:09:37.950Z,59.00
2018-06-30T22:12:06.739Z,59.30
2018-06-30T22:14:35.802Z,59.50
2018-06-30T22:17:04.564Z,59.60
2018-06-30T22:19:33.402Z,60.30
2018-06-30T22:22:02.849Z,60.20
2018-06-30T22:24:31.714Z,60.30
2018-06-30T22:27:00.876Z,60.50
2018-06-30T22:29:30.577Z,60.60
2018-06-30T22:32:00.107Z,60.20
2018-06-30T22:34:29.798Z,61.80
2018-06-30T22:36:58.998Z,61.00
2018-06-30T22:39:39.307Z,61.00
2018-06-30T22:42:08.110Z,61.20
2018-06-30T22:44:37.653Z,62.10
2018-06-30T22:49:35.227Z,61.40
2018-06-30T22:52:04.067Z,61.50
2018-06-30T22:54:33.604Z,61.60
2018-06-30T22:57:02.890Z,61.30
2018-06-30T22:59:32.035Z,61.60
2018-06-30T23:02:00.839Z,61.20
2018-06-30T23:04:31.020Z,61.70
2018-06-30T23:07:00.122Z,61.80
2018-06-30T23:09:29.068Z,62.20
2018-06-30T23:11:58.174Z,62.80
2018-06-30T23:14:27.266Z,62.40
2018-06-30T23:16:56.410Z,62.20
2018-06-30T23:19:25.708Z,62.30
2018-06-30T23:21:54.802Z,62.00
2018-06-30T23:24:23.571Z,62.10
2018-06-30T23:26:53.142Z,62.30
2018-06-30T23:29:22.245Z,61.60
2018-06-30T23:31:51.385Z,61.40
2018-06-30T23:36:50.133Z,60.60
2018-06-30T23:39:19.551Z,61.50
2018-06-30T23:41:48.660Z,62.10
2018-06-30T23:46:46.535Z,61.60
2018-06-30T23:49:15.734Z,61.90
2018-06-30T23:51:44.848Z,62.00
2018-06-30T23:54:14.074Z,62.70
2018-06-30T23:56:43.301Z,62.40
2018-06-30T23:59:12.313Z,62.30
